Aérodrome :
LOGIN :

S'inscrire | Disclaimer

   EN    FR    IT 

 










Légende :    VFR   VFR Marginal   IFR   IFR Intensif   IFR Très Intensif
Visi : 
Plafond : 
>= 8 km
>= 3000ft
5 à 8 km
1000 à 3000 ft
1500m à 5 km
500 à 1000 ft
800 à 1500m
200 à 500 ft
< 800m
< 200 ft
Symboles :   Orages  Brouillard  Fortes neiges  Fortes précipitations  Vent > 20 kt
SIGMETs :   Divers  Orages  Givrage  Turbulence  Onde Orograph.  Cendres Volcan.







- Altitude de l'aérodrome : 124 ft
- Code IATA : NHT
- Voir les cartes d'approche


EGWU - RAF Northolt

DERNIER METAR :
  • 192150Z 23001KT CAVOK 08/07 Q1021 BLU NOSIG

METARs EXPIRÉS :
  • 192050Z 00000KT 9999 FEW046 09/07 Q1021 NOSIG
  • 191950Z 00000KT CAVOK 10/08 Q1021 BLU NOSIG

TAF TAF EGWU
Valide du 19 à 21h jusqu'au 20 à 15h UTC


191926Z 1921/2015 27005KT 9999 SCT045
PROB40 2001/2007 6000 HZ
PROB30
TEMPO 2003/2007 4000 MIFG BR
PROB40
TEMPO 2009/2012 SCT018
Pas de NOTAMs connus pour ce terrain.



MET'MAP, la Météo Aéronautique d'un coup d'oeil ! - Copyright ORBIFLY Décembre 2007 - Disclaimer

ORBIFLY MET'MAP TEAM :

Programmation & Développement : Alexandra Zaïnal
Conception & Développement : Baudouin d'Aumeries
Co-Programmation & Développement : Marc-Olivier Méhu
Soutien technique & logistique : Manuel Goepfert

Contact : metmap@orbifly.com




SOURCES & CREDITS :

   NOAA